Time;durP1;ratioP1;P1;durP2;ratioP2;P2;SDS_P1;SDS_P2;PMS_P1;PMS_P2;Temp;Humidity;BMP_temperature;BMP_pressure;BME280_temperature;BME280_humidity;BME280_pressure;Samples;Min_cycle;Max_cycle;Signal;HPM_P1;HPM_P2
2022/01/06 00:01:22;;;;;;;8.13;3.07;;;5.60;99.90;;;;;;12813679;23;20203;-76
2022/01/06 00:06:24;;;;;;;6.60;2.63;;;5.50;99.90;;;;;;12853000;23;20196;-75
2022/01/06 00:11:25;;;;;;;6.87;2.63;;;5.60;99.90;;;;;;12828727;23;20196;-76
2022/01/06 00:16:36;;;;;;;6.17;3.10;;;5.50;99.90;;;;;;12855959;23;20195;-75
2022/01/06 00:27:09;;;;;;;6.83;3.23;;;5.60;99.90;;;;;;12854876;23;20638;-75
2022/01/06 00:32:11;;;;;;;7.67;2.80;;;5.60;99.90;;;;;;12827082;23;20204;-74
2022/01/06 00:37:13;;;;;;;5.63;3.00;;;5.60;99.90;;;;;;12853139;23;20208;-75
2022/01/06 00:42:16;;;;;;;5.40;2.73;;;5.60;99.90;;;;;;12825043;23;20283;-76
2022/01/06 00:47:20;;;;;;;7.80;3.33;;;5.60;99.90;;;;;;12854526;23;20239;-75
2022/01/06 00:52:21;;;;;;;5.33;2.47;;;5.60;99.90;;;;;;12854267;23;20539;-74
2022/01/06 00:57:22;;;;;;;6.30;2.27;;;5.70;99.90;;;;;;12854857;23;20211;-75
2022/01/06 01:02:23;;;;;;;4.97;2.40;;;5.70;99.90;;;;;;12855692;23;20231;-77
2022/01/06 01:07:23;;;;;;;5.20;2.30;;;5.70;99.90;;;;;;12856896;23;20203;-76
2022/01/06 01:12:26;;;;;;;6.10;1.93;;;5.80;99.90;;;;;;12827542;23;20279;-75
2022/01/06 01:17:27;;;;;;;4.60;2.00;;;5.80;99.90;;;;;;12850365;23;20215;-73
2022/01/06 01:22:28;;;;;;;5.80;2.67;;;5.80;99.90;;;;;;12827712;23;20196;-74
2022/01/06 01:27:34;;;;;;;5.70;2.20;;;5.70;99.90;;;;;;12853767;23;20623;-76
2022/01/06 01:32:37;;;;;;;5.47;2.00;;;5.50;99.90;;;;;;12854611;23;20278;-76
2022/01/06 01:37:38;;;;;;;7.30;2.43;;;5.20;99.90;;;;;;12800992;23;20208;-75
2022/01/06 01:42:40;;;;;;;6.57;2.13;;;5.10;99.90;;;;;;12855264;23;20307;-75
2022/01/06 01:47:44;;;;;;;7.77;2.30;;;5.00;99.90;;;;;;12827018;23;20203;-76
2022/01/06 01:52:48;;;;;;;7.60;2.20;;;4.90;99.90;;;;;;12855366;23;20279;-74
2022/01/06 01:57:49;;;;;;;6.40;2.27;;;5.00;99.90;;;;;;12828224;23;20240;-75
2022/01/06 02:02:50;;;;;;;4.77;1.80;;;5.10;99.90;;;;;;12827531;23;20234;-75
2022/01/06 02:07:51;;;;;;;5.17;2.13;;;5.20;99.90;;;;;;12826873;23;20207;-76
2022/01/06 02:12:54;;;;;;;3.53;1.87;;;5.00;99.90;;;;;;12828078;23;20208;-76
2022/01/06 02:17:55;;;;;;;4.93;2.10;;;4.90;99.90;;;;;;12853804;23;20288;-76
2022/01/06 02:22:57;;;;;;;7.50;2.20;;;4.70;99.90;;;;;;12826993;23;20275;-74
2022/01/06 02:28:03;;;;;;;6.07;2.03;;;4.50;99.90;;;;;;12829269;23;20219;-74
2022/01/06 02:33:05;;;;;;;3.80;2.80;;;4.40;99.90;;;;;;12853895;23;20263;-75
2022/01/06 02:38:06;;;;;;;3.90;2.30;;;4.30;99.90;;;;;;12851824;23;20235;-74
2022/01/06 02:43:07;;;;;;;5.53;2.27;;;4.20;99.90;;;;;;12826178;23;20287;-74
2022/01/06 02:48:08;;;;;;;8.70;2.83;;;4.20;99.90;;;;;;12826168;23;20238;-73
2022/01/06 02:53:11;;;;;;;11.47;3.13;;;4.10;99.90;;;;;;12857397;23;20207;-74
2022/01/06 02:58:12;;;;;;;7.10;2.70;;;4.00;99.90;;;;;;12829180;23;20239;-73
2022/01/06 03:03:16;;;;;;;6.30;2.60;;;4.00;99.90;;;;;;12841377;23;20571;-75
2022/01/06 03:08:43;;;;;;;7.40;2.90;;;4.10;99.90;;;;;;12839032;23;20239;-76
2022/01/06 03:13:49;;;;;;;6.37;3.20;;;4.20;99.90;;;;;;12839521;23;20204;-76
2022/01/06 03:18:52;;;;;;;5.10;2.63;;;4.30;99.90;;;;;;12790376;23;20208;-76
2022/01/06 03:23:55;;;;;;;7.47;3.90;;;4.50;99.90;;;;;;12816117;23;20203;-74
2022/01/06 03:28:56;;;;;;;5.63;3.30;;;4.60;99.90;;;;;;12832863;23;20199;-73
2022/01/06 03:33:58;;;;;;;6.17;3.17;;;4.70;99.90;;;;;;12829672;23;20228;-75
2022/01/06 03:38:59;;;;;;;5.90;3.07;;;4.50;99.90;;;;;;12813961;23;20236;-74
2022/01/06 03:44:00;;;;;;;3.97;2.83;;;4.40;99.90;;;;;;12830149;23;20203;-75
2022/01/06 03:49:03;;;;;;;5.20;3.07;;;4.50;99.90;;;;;;12828427;23;20207;-74
2022/01/06 03:54:04;;;;;;;3.43;2.80;;;4.60;99.90;;;;;;12804744;23;20222;-73
2022/01/06 03:59:06;;;;;;;5.53;3.10;;;4.60;99.90;;;;;;12827376;23;20212;-73
2022/01/06 04:04:08;;;;;;;8.07;2.67;;;4.50;99.90;;;;;;12856289;23;20532;-76
2022/01/06 04:09:09;;;;;;;6.40;2.53;;;4.30;99.90;;;;;;12837245;23;20291;-74
2022/01/06 04:14:10;;;;;;;6.20;2.37;;;4.10;99.90;;;;;;12828260;23;20199;-76
2022/01/06 04:19:14;;;;;;;4.87;2.70;;;4.10;99.90;;;;;;12828199;23;20590;-76
2022/01/06 04:24:14;;;;;;;4.27;2.13;;;4.10;99.90;;;;;;12855082;23;20286;-74
2022/01/06 04:29:15;;;;;;;3.10;2.10;;;4.20;99.90;;;;;;12826521;23;20223;-74
2022/01/06 04:34:15;;;;;;;5.27;2.50;;;4.20;99.90;;;;;;12854419;23;20267;-73
2022/01/06 04:39:18;;;;;;;7.13;2.00;;;4.30;99.90;;;;;;12852814;23;20232;-73
2022/01/06 04:44:19;;;;;;;4.67;2.07;;;4.40;99.90;;;;;;12827409;23;20208;-74
2022/01/06 04:49:19;;;;;;;5.23;1.90;;;4.40;99.90;;;;;;12852796;23;20812;-74
2022/01/06 04:54:23;;;;;;;5.70;2.37;;;4.40;99.90;;;;;;12812875;23;20567;-75
2022/01/06 04:59:23;;;;;;;5.53;1.87;;;4.40;99.90;;;;;;12852994;23;20208;-74
2022/01/06 05:04:24;;;;;;;5.73;2.13;;;4.20;99.90;;;;;;12827673;23;20691;-74
2022/01/06 05:09:25;;;;;;;8.03;2.27;;;4.00;99.90;;;;;;12853570;23;20278;-74
2022/01/06 05:14:26;;;;;;;6.10;1.70;;;3.80;99.90;;;;;;12855639;23;20237;-75
2022/01/06 05:19:27;;;;;;;8.93;2.67;;;3.60;99.90;;;;;;12828933;23;20204;-73
2022/01/06 05:24:27;;;;;;;4.53;1.80;;;3.50;99.90;;;;;;12825238;23;20200;-74
2022/01/06 05:29:28;;;;;;;4.53;2.07;;;3.40;99.90;;;;;;12851769;23;20226;-74
2022/01/06 05:34:29;;;;;;;6.27;2.00;;;3.20;99.90;;;;;;12853022;23;20204;-75
2022/01/06 05:39:30;;;;;;;11.10;2.30;;;3.20;99.90;;;;;;12851412;23;20207;-74
2022/01/06 05:44:33;;;;;;;9.10;1.90;;;3.20;99.90;;;;;;12852907;23;20243;-75
2022/01/06 05:49:37;;;;;;;11.47;2.40;;;3.20;99.90;;;;;;12825178;23;20283;-75
2022/01/06 05:54:38;;;;;;;5.27;2.03;;;3.40;99.90;;;;;;12852001;23;20204;-75
2022/01/06 05:59:38;;;;;;;5.93;2.47;;;3.60;99.90;;;;;;12823929;23;20663;-74
2022/01/06 06:04:39;;;;;;;10.60;2.73;;;3.70;99.90;;;;;;12825141;23;20196;-74
2022/01/06 06:09:40;;;;;;;4.97;2.80;;;3.80;99.90;;;;;;12852267;23;20210;-75
2022/01/06 06:14:40;;;;;;;8.40;2.47;;;3.90;99.90;;;;;;12854100;23;20199;-74
2022/01/06 06:19:41;;;;;;;6.50;2.67;;;3.90;99.90;;;;;;12857511;23;20718;-74
2022/01/06 06:24:44;;;;;;;9.40;2.70;;;3.90;99.90;;;;;;12839718;23;20263;-73
2022/01/06 06:29:45;;;;;;;5.57;1.97;;;3.90;99.90;;;;;;12856158;23;20251;-74
2022/01/06 06:34:45;;;;;;;12.27;2.63;;;3.80;99.90;;;;;;12830088;23;20727;-75
2022/01/06 06:39:49;;;;;;;8.40;2.60;;;3.70;99.90;;;;;;12827706;23;20340;-74
2022/01/06 06:44:50;;;;;;;8.90;2.43;;;3.50;99.90;;;;;;12855173;23;20202;-74
2022/01/06 06:49:50;;;;;;;12.67;2.60;;;3.50;99.90;;;;;;12863872;23;20220;-78
2022/01/06 06:54:52;;;;;;;8.83;2.47;;;3.50;99.90;;;;;;12833589;23;20286;-76
2022/01/06 06:59:53;;;;;;;9.77;2.97;;;3.60;99.90;;;;;;12848523;23;20216;-73
2022/01/06 07:04:53;;;;;;;10.57;2.60;;;3.60;99.90;;;;;;12856476;23;20215;-74
2022/01/06 07:09:54;;;;;;;6.47;2.70;;;3.70;99.90;;;;;;12830938;23;20203;-74
2022/01/06 07:14:55;;;;;;;9.27;2.43;;;3.80;99.90;;;;;;12855541;23;20220;-74
2022/01/06 07:19:56;;;;;;;8.33;2.17;;;3.90;99.90;;;;;;12853483;23;20211;-73
2022/01/06 07:24:57;;;;;;;8.43;2.87;;;4.00;99.90;;;;;;12858266;23;20361;-75
2022/01/06 07:29:57;;;;;;;10.47;2.70;;;4.00;99.90;;;;;;12855964;23;20296;-76
2022/01/06 07:34:58;;;;;;;9.73;3.00;;;4.10;99.90;;;;;;12846027;23;20258;-74
2022/01/06 07:39:59;;;;;;;8.77;2.80;;;4.10;99.90;;;;;;12830696;23;20663;-75
2022/01/06 07:45:00;;;;;;;16.77;2.70;;;4.30;99.90;;;;;;12828342;23;20191;-75
2022/01/06 07:50:01;;;;;;;13.27;2.50;;;4.30;99.90;;;;;;12853984;23;20208;-75
2022/01/06 07:55:02;;;;;;;10.37;2.83;;;4.40;99.90;;;;;;12850712;23;20196;-73
2022/01/06 08:00:04;;;;;;;11.33;2.70;;;4.50;99.90;;;;;;12829759;23;20299;-74
2022/01/06 08:05:09;;;;;;;11.27;2.70;;;4.50;99.90;;;;;;12854365;23;20263;-75
2022/01/06 08:10:10;;;;;;;8.80;2.37;;;4.60;99.90;;;;;;12854865;23;20137;-74
2022/01/06 08:15:11;;;;;;;6.40;2.80;;;4.60;99.90;;;;;;12854601;23;20168;-75
2022/01/06 08:20:12;;;;;;;8.50;2.80;;;4.60;99.90;;;;;;12850345;23;20188;-71
2022/01/06 08:25:16;;;;;;;12.63;2.90;;;4.70;99.90;;;;;;12847867;23;20141;-73
2022/01/06 08:30:16;;;;;;;9.10;3.00;;;4.80;99.90;;;;;;12822984;23;20251;-72
2022/01/06 08:35:17;;;;;;;8.80;2.90;;;4.90;99.90;;;;;;12849636;23;20709;-71
2022/01/06 08:40:18;;;;;;;10.73;2.97;;;5.20;99.90;;;;;;12820025;23;20227;-73
2022/01/06 08:45:19;;;;;;;13.57;3.07;;;5.50;99.90;;;;;;12850633;23;20196;-75
2022/01/06 08:50:20;;;;;;;5.27;2.23;;;5.80;99.90;;;;;;12850418;23;20159;-75
2022/01/06 08:55:26;;;;;;;10.37;2.70;;;5.90;99.90;;;;;;12823587;23;20252;-75
2022/01/06 09:00:27;;;;;;;7.30;2.43;;;6.00;99.90;;;;;;12850479;23;20211;-75
2022/01/06 09:05:28;;;;;;;14.03;2.67;;;6.60;99.90;;;;;;12823518;23;20210;-75
2022/01/06 09:10:30;;;;;;;10.07;2.93;;;8.20;99.90;;;;;;12851835;23;20205;-75
2022/01/06 09:15:31;;;;;;;9.47;2.30;;;11.80;99.90;;;;;;12853032;23;20285;-75
2022/01/06 09:20:32;;;;;;;8.73;2.50;;;14.10;99.90;;;;;;12823203;23;20217;-74
2022/01/06 09:25:32;;;;;;;11.17;2.77;;;16.20;92.10;;;;;;12851668;23;20256;-75
2022/01/06 09:30:33;;;;;;;9.60;2.83;;;17.30;76.40;;;;;;12850588;23;20206;-76
2022/01/06 09:35:34;;;;;;;8.00;2.30;;;15.40;73.50;;;;;;12850926;23;20823;-74
2022/01/06 09:40:35;;;;;;;8.80;2.57;;;12.80;87.70;;;;;;12848848;23;20933;-74
2022/01/06 09:45:36;;;;;;;11.93;3.20;;;11.40;93.50;;;;;;12850587;23;20536;-74
2022/01/06 09:50:42;;;;;;;13.53;2.70;;;10.50;97.20;;;;;;12853404;23;20275;-73
2022/01/06 09:55:42;;;;;;;14.37;3.63;;;11.10;98.60;;;;;;12819748;23;20292;-76
2022/01/06 10:00:46;;;;;;;10.93;3.70;;;11.70;97.70;;;;;;12854930;23;20429;-75
2022/01/06 10:05:51;;;;;;;12.60;2.77;;;12.60;95.50;;;;;;12832811;23;20225;-75
2022/01/06 10:10:52;;;;;;;8.37;2.67;;;14.10;92.50;;;;;;12857766;23;20724;-76
2022/01/06 10:15:52;;;;;;;9.30;2.80;;;14.80;84.20;;;;;;12841638;23;20199;-74
2022/01/06 10:20:53;;;;;;;11.47;3.47;;;15.00;81.90;;;;;;12857749;23;20249;-78
2022/01/06 10:25:54;;;;;;;9.07;2.83;;;15.00;82.50;;;;;;12860475;23;20498;-76
2022/01/06 10:30:55;;;;;;;9.43;2.80;;;17.00;74.40;;;;;;12862628;23;20196;-77
2022/01/06 10:36:05;;;;;;;9.60;2.77;;;19.30;60.40;;;;;;12859021;23;20207;-78
2022/01/06 10:41:17;;;;;;;12.73;3.40;;;20.60;53.30;;;;;;12857383;23;20723;-75
2022/01/06 10:46:41;;;;;;;8.17;2.87;;;20.40;50.60;;;;;;12834808;23;20206;-75
2022/01/06 10:51:48;;;;;;;11.40;3.60;;;17.50;52.70;;;;;;12855821;23;20275;-75
2022/01/06 10:57:00;;;;;;;6.87;3.33;;;13.90;61.60;;;;;;12858926;23;20596;-75
2022/01/06 11:02:02;;;;;;;8.50;3.50;;;11.70;71.20;;;;;;12856793;23;20289;-74
2022/01/06 11:07:03;;;;;;;9.67;3.63;;;11.50;79.30;;;;;;12829128;23;20210;-76
2022/01/06 11:17:24;;;;;;;9.10;2.70;;;20.30;49.60;;;;;;12856045;23;20203;-75
2022/01/06 11:22:26;;;;;;;11.57;3.47;;;22.30;43.40;;;;;;12856555;23;20200;-77
2022/01/06 11:27:35;;;;;;;12.40;4.00;;;22.90;40.90;;;;;;12851505;23;20203;-76
2022/01/06 11:32:37;;;;;;;14.23;3.87;;;19.10;46.00;;;;;;12855589;23;20542;-75
2022/01/06 11:37:40;;;;;;;12.53;3.50;;;15.70;54.40;;;;;;12852845;23;20554;-75
2022/01/06 11:42:51;;;;;;;15.37;4.00;;;13.60;59.00;;;;;;12828217;23;20200;-76
2022/01/06 11:48:13;;;;;;;8.13;2.93;;;12.10;66.10;;;;;;12829089;23;20205;-76
2022/01/06 11:53:16;;;;;;;9.67;3.33;;;11.30;71.10;;;;;;12849496;23;20202;-75
2022/01/06 11:58:22;;;;;;;11.20;3.83;;;10.70;75.20;;;;;;12856816;23;20205;-77
2022/01/06 12:03:34;;;;;;;11.87;3.27;;;10.40;78.40;;;;;;12833464;23;20600;-77
2022/01/06 12:08:42;;;;;;;9.07;3.10;;;10.10;80.00;;;;;;12829973;23;20212;-77
2022/01/06 12:13:46;;;;;;;7.90;3.57;;;9.90;83.20;;;;;;12859927;23;20202;-78
2022/01/06 12:18:47;;;;;;;13.97;3.40;;;10.00;84.90;;;;;;12834403;23;20232;-78
2022/01/06 12:24:04;;;;;;;14.43;3.40;;;9.80;85.40;;;;;;12856553;23;21066;-76
2022/01/06 12:29:15;;;;;;;7.83;2.83;;;9.50;87.80;;;;;;12834086;23;20205;-75
2022/01/06 12:34:17;;;;;;;13.20;3.20;;;9.30;88.80;;;;;;12860851;23;20216;-78
2022/01/06 12:39:21;;;;;;;12.87;2.90;;;9.00;90.60;;;;;;12829751;23;20231;-75
2022/01/06 12:44:27;;;;;;;11.27;3.20;;;8.90;90.60;;;;;;12811738;23;20210;-76
2022/01/06 12:49:29;;;;;;;9.63;2.80;;;8.90;91.30;;;;;;12829926;23;20206;-77
2022/01/06 12:54:35;;;;;;;9.77;2.97;;;9.00;92.00;;;;;;12816395;23;20199;-77
2022/01/06 12:59:39;;;;;;;12.07;3.53;;;8.80;92.90;;;;;;12842860;23;20210;-79
2022/01/06 13:04:45;;;;;;;12.13;3.23;;;8.70;93.60;;;;;;12830088;23;20550;-77
2022/01/06 13:09:55;;;;;;;13.00;2.87;;;8.70;93.30;;;;;;12855956;23;20202;-77
2022/01/06 13:14:55;;;;;;;9.37;3.07;;;9.00;90.80;;;;;;12856981;23;20203;-73
2022/01/06 13:20:10;;;;;;;10.60;3.75;;;9.20;90.90;;;;;;12852729;23;20410;-73
2022/01/06 13:25:12;;;;;;;13.13;3.67;;;9.40;92.10;;;;;;12840631;23;20179;-76
2022/01/06 13:30:12;;;;;;;12.13;2.77;;;9.20;91.20;;;;;;12854162;23;20147;-75
2022/01/06 13:35:13;;;;;;;8.83;2.80;;;8.90;91.50;;;;;;12857157;23;20125;-76
2022/01/06 13:40:15;;;;;;;13.43;3.20;;;8.40;93.20;;;;;;12857490;23;20172;-77
2022/01/06 13:45:23;;;;;;;16.80;2.93;;;8.10;94.50;;;;;;12855052;23;20131;-76
2022/01/06 13:56:32;;;;;;;9.00;2.67;;;7.60;97.70;;;;;;12848190;23;20188;-76
2022/01/06 14:01:42;;;;;;;9.27;2.87;;;7.20;99.30;;;;;;12786647;23;20236;-79
2022/01/06 14:06:47;;;;;;;10.13;2.63;;;7.00;99.90;;;;;;12839018;23;20616;-81
2022/01/06 14:11:48;;;;;;;10.53;2.67;;;7.00;99.90;;;;;;12832565;23;20204;-76
2022/01/06 14:16:49;;;;;;;10.27;2.70;;;7.00;99.90;;;;;;12854116;23;20223;-75
2022/01/06 14:21:50;;;;;;;10.60;3.03;;;7.00;99.90;;;;;;12803976;23;20230;-74
2022/01/06 14:26:50;;;;;;;8.73;2.43;;;6.90;99.90;;;;;;12825530;23;20310;-77
2022/01/06 14:31:51;;;;;;;9.83;3.07;;;6.90;99.90;;;;;;12854993;23;20207;-77
2022/01/06 14:36:52;;;;;;;11.53;2.30;;;6.90;99.90;;;;;;12858222;23;20200;-77
2022/01/06 14:41:52;;;;;;;14.03;2.67;;;6.80;99.90;;;;;;12809753;23;20200;-76
2022/01/06 14:46:54;;;;;;;14.80;2.70;;;6.80;99.90;;;;;;12861078;23;20200;-73
2022/01/06 14:51:56;;;;;;;10.30;2.70;;;6.60;99.90;;;;;;12859216;23;20203;-77
2022/01/06 14:56:56;;;;;;;15.07;3.10;;;6.50;99.90;;;;;;12862579;23;20275;-76
2022/01/06 15:01:59;;;;;;;11.50;2.50;;;6.40;99.90;;;;;;12862344;23;20673;-76
2022/01/06 15:07:00;;;;;;;12.30;2.90;;;6.30;99.90;;;;;;12829700;23;20196;-81
2022/01/06 15:12:01;;;;;;;11.60;2.77;;;6.10;99.90;;;;;;12833089;23;20191;-78
2022/01/06 15:17:01;;;;;;;12.80;2.50;;;6.00;99.90;;;;;;12828798;23;20200;-75
2022/01/06 15:22:02;;;;;;;11.97;2.77;;;5.90;99.90;;;;;;12854643;23;20223;-75
2022/01/06 15:27:03;;;;;;;8.83;2.90;;;5.70;99.90;;;;;;12825139;23;20207;-75
2022/01/06 15:32:07;;;;;;;10.77;3.67;;;5.50;99.90;;;;;;12853610;23;20207;-80
2022/01/06 15:37:08;;;;;;;8.90;3.00;;;5.40;99.90;;;;;;12860286;23;20235;-76
2022/01/06 15:42:09;;;;;;;15.30;3.23;;;5.20;99.90;;;;;;12861579;23;20196;-78
2022/01/06 15:47:13;;;;;;;6.40;2.93;;;5.00;99.90;;;;;;12829102;23;20196;-78
2022/01/06 15:52:13;;;;;;;11.83;3.27;;;4.90;99.90;;;;;;12859172;23;20692;-76
2022/01/06 15:57:14;;;;;;;10.93;3.40;;;4.70;99.90;;;;;;12855690;23;20203;-77
2022/01/06 16:07:34;;;;;;;12.47;3.53;;;4.50;99.90;;;;;;12854878;23;20199;-76
2022/01/06 16:12:36;;;;;;;12.80;3.40;;;4.30;99.90;;;;;;12828217;23;20196;-78
2022/01/06 16:17:37;;;;;;;8.17;3.20;;;4.20;99.90;;;;;;12829514;23;20208;-78
2022/01/06 16:22:41;;;;;;;11.43;3.33;;;4.10;99.90;;;;;;12856263;23;20195;-76
2022/01/06 16:27:42;;;;;;;8.27;2.83;;;4.00;99.90;;;;;;12833156;23;20278;-77
2022/01/06 16:32:44;;;;;;;12.00;3.47;;;4.00;99.90;;;;;;12839221;23;20196;-77
2022/01/06 16:37:45;;;;;;;11.27;4.10;;;3.90;99.90;;;;;;12854991;23;20215;-77
2022/01/06 16:42:52;;;;;;;11.67;3.80;;;3.80;99.90;;;;;;12828745;23;20202;-77
2022/01/06 16:47:52;;;;;;;10.17;3.60;;;3.70;99.90;;;;;;12855027;23;20327;-77
2022/01/06 16:52:54;;;;;;;9.33;3.77;;;3.70;99.90;;;;;;12831237;23;20248;-78
2022/01/06 16:57:56;;;;;;;10.33;3.57;;;3.60;99.90;;;;;;12859175;23;20238;-77
2022/01/06 17:02:57;;;;;;;13.47;6.00;;;3.60;99.90;;;;;;12858790;23;20584;-77
2022/01/06 17:07:58;;;;;;;15.47;6.07;;;3.60;99.90;;;;;;12833024;23;20203;-76
2022/01/06 17:12:58;;;;;;;17.23;5.33;;;3.50;99.90;;;;;;12835386;23;20203;-77
2022/01/06 17:17:59;;;;;;;18.83;5.93;;;3.40;99.90;;;;;;12833095;23;20215;-75
2022/01/06 17:23:00;;;;;;;15.03;5.70;;;3.40;99.90;;;;;;12832361;23;20200;-77
2022/01/06 17:28:01;;;;;;;13.97;5.10;;;3.40;99.90;;;;;;12831784;23;20588;-77
2022/01/06 17:33:05;;;;;;;16.57;5.87;;;3.40;99.90;;;;;;12832846;23;20203;-76
2022/01/06 17:38:05;;;;;;;19.90;4.97;;;3.40;99.90;;;;;;12828485;23;20716;-77
2022/01/06 17:43:09;;;;;;;17.30;4.67;;;3.30;99.90;;;;;;12829559;23;20206;-77
2022/01/06 17:48:10;;;;;;;14.40;4.87;;;3.30;99.90;;;;;;12859021;23;20195;-76
2022/01/06 17:53:10;;;;;;;12.73;4.10;;;3.30;99.90;;;;;;12864087;23;20585;-77
2022/01/06 17:58:12;;;;;;;15.13;5.30;;;3.30;99.90;;;;;;12856501;23;20207;-77
2022/01/06 18:03:13;;;;;;;14.77;6.43;;;3.30;99.90;;;;;;12829850;23;20199;-76
2022/01/06 18:08:35;;;;;;;11.27;4.47;;;3.20;99.90;;;;;;12855338;23;20204;-77
2022/01/06 18:13:34;;;;;;;16.07;6.80;;;3.30;99.90;;;;;;12856070;23;20210;-77
2022/01/06 18:18:35;;;;;;;17.23;6.63;;;3.30;99.90;;;;;;12835524;23;20608;-77
2022/01/06 18:23:36;;;;;;;21.30;9.97;;;3.40;99.90;;;;;;12832542;23;20212;-76
2022/01/06 18:28:38;;;;;;;30.37;13.30;;;3.40;99.90;;;;;;12856372;23;20200;-78
2022/01/06 18:33:42;;;;;;;21.00;10.90;;;3.30;99.90;;;;;;12830867;23;20303;-77
2022/01/06 18:38:45;;;;;;;17.17;9.20;;;3.30;99.90;;;;;;12830813;23;20656;-77
2022/01/06 18:43:45;;;;;;;14.73;7.37;;;3.20;99.90;;;;;;12807279;23;20259;-77
2022/01/06 18:48:48;;;;;;;23.37;9.73;;;3.10;99.90;;;;;;12839943;23;20231;-79
2022/01/06 18:53:48;;;;;;;16.87;8.93;;;3.10;99.90;;;;;;12813877;23;20206;-76
2022/01/06 18:58:49;;;;;;;17.93;8.47;;;3.00;99.90;;;;;;12835293;23;20231;-76
2022/01/06 19:03:50;;;;;;;17.50;8.07;;;3.00;99.90;;;;;;12835039;23;20718;-78
2022/01/06 19:08:50;;;;;;;14.13;6.70;;;3.00;99.90;;;;;;12839152;23;20203;-77
2022/01/06 19:13:51;;;;;;;17.53;7.47;;;2.90;99.90;;;;;;12834825;23;20238;-77
2022/01/06 19:18:52;;;;;;;19.20;7.70;;;2.90;99.90;;;;;;12833052;23;20231;-77
2022/01/06 19:23:52;;;;;;;21.47;7.30;;;2.90;99.90;;;;;;12831446;23;20283;-76
2022/01/06 19:28:54;;;;;;;23.47;12.13;;;2.90;99.90;;;;;;12856530;23;20642;-77
2022/01/06 19:34:23;;;;;;;35.53;16.03;;;3.00;99.90;;;;;;12832912;23;20200;-77
2022/01/06 19:39:23;;;;;;;32.40;17.47;;;2.90;99.90;;;;;;12858478;23;20211;-77
2022/01/06 19:44:36;;;;;;;25.63;10.77;;;2.90;99.90;;;;;;12833847;23;20203;-78
2022/01/06 19:49:42;;;;;;;21.83;9.07;;;2.80;99.90;;;;;;12826027;23;20523;-78
2022/01/06 19:54:46;;;;;;;16.20;8.80;;;2.80;99.90;;;;;;12833717;23;20203;-78
2022/01/06 19:59:50;;;;;;;15.80;6.00;;;2.70;99.90;;;;;;12795523;23;20274;-79
2022/01/06 20:05:05;;;;;;;17.57;5.53;;;2.70;99.90;;;;;;12830237;23;20196;-77
2022/01/06 20:10:07;;;;;;;17.30;6.97;;;2.70;99.90;;;;;;12859599;23;20184;-77
2022/01/06 20:15:12;;;;;;;17.80;7.67;;;2.70;99.90;;;;;;12864591;23;20151;-79
2022/01/06 20:20:23;;;;;;;19.77;8.37;;;2.60;99.90;;;;;;12831552;23;20313;-77
2022/01/06 20:25:24;;;;;;;18.73;7.47;;;2.60;99.90;;;;;;12832766;23;20176;-77
2022/01/06 20:30:27;;;;;;;21.80;7.43;;;2.60;99.90;;;;;;12833810;23;20192;-78
2022/01/06 20:35:28;;;;;;;12.17;6.20;;;2.60;99.90;;;;;;12833709;23;20276;-77
2022/01/06 20:40:41;;;;;;;16.03;6.40;;;2.60;99.90;;;;;;12853200;23;20203;-78
2022/01/06 20:45:43;;;;;;;17.07;6.63;;;2.60;99.90;;;;;;12825872;23;20243;-78
2022/01/06 20:56:14;;;;;;;14.37;7.23;;;2.50;99.90;;;;;;12861817;23;20576;-77
2022/01/06 21:01:20;;;;;;;16.90;7.57;;;2.50;99.90;;;;;;12831025;23;20208;-77
2022/01/06 21:06:23;;;;;;;12.70;6.40;;;2.50;99.90;;;;;;12832161;23;20211;-77
2022/01/06 21:11:24;;;;;;;16.10;6.00;;;2.50;99.90;;;;;;12814820;23;20203;-77
2022/01/06 21:16:32;;;;;;;17.73;7.33;;;2.50;99.90;;;;;;12856216;23;20199;-79
2022/01/06 21:21:33;;;;;;;16.97;6.40;;;2.50;99.90;;;;;;12857297;23;20204;-77
2022/01/06 21:26:34;;;;;;;20.10;7.40;;;2.50;99.90;;;;;;12832309;23;20227;-77
2022/01/06 21:31:36;;;;;;;12.13;6.53;;;2.50;99.90;;;;;;12862187;23;20204;-77
2022/01/06 21:36:43;;;;;;;17.67;8.07;;;2.50;99.90;;;;;;12837692;23;20255;-77
2022/01/06 21:41:58;;;;;;;20.33;7.80;;;2.50;99.90;;;;;;12848920;23;20274;-79
2022/01/06 21:47:07;;;;;;;16.47;7.90;;;2.50;99.90;;;;;;12835234;23;20223;-78
2022/01/06 21:52:23;;;;;;;19.07;7.83;;;2.50;99.90;;;;;;12840053;23;20765;-80
2022/01/06 21:57:27;;;;;;;17.73;7.53;;;2.50;99.90;;;;;;12833045;23;20195;-80
2022/01/06 22:02:41;;;;;;;16.70;7.63;;;2.50;99.90;;;;;;12819071;23;20208;-79
2022/01/06 22:07:42;;;;;;;14.53;7.63;;;2.40;99.90;;;;;;12822883;23;20199;-76
2022/01/06 22:12:51;;;;;;;17.23;8.27;;;2.40;99.90;;;;;;12825513;23;20282;-77
2022/01/06 22:18:16;;;;;;;15.80;7.77;;;2.50;99.90;;;;;;12840308;23;20212;-77
2022/01/06 22:23:25;;;;;;;16.33;7.57;;;2.50;99.90;;;;;;12799143;23;20329;-79
2022/01/06 22:28:57;;;;;;;16.43;8.00;;;2.50;99.90;;;;;;12815684;23;20203;-78
2022/01/06 22:39:31;;;;;;;14.37;8.17;;;2.40;99.90;;;;;;12861124;23;20207;-78
2022/01/06 22:44:42;;;;;;;18.20;8.27;;;2.40;99.90;;;;;;12824862;23;20196;-79
2022/01/06 22:50:04;;;;;;;16.70;8.97;;;2.30;99.90;;;;;;12822264;23;20200;-78
2022/01/06 22:55:18;;;;;;;20.53;9.07;;;2.30;99.90;;;;;;12844765;23;20203;-78
2022/01/06 23:00:30;;;;;;;19.63;9.10;;;2.30;99.90;;;;;;12818981;23;20500;-79
2022/01/06 23:06:11;;;;;;;20.57;9.00;;;2.30;99.90;;;;;;12844802;23;20215;-78
2022/01/06 23:11:27;;;;;;;19.10;9.03;;;2.20;99.90;;;;;;12810274;23;20529;-78
2022/01/06 23:16:42;;;;;;;15.63;8.27;;;2.20;99.90;;;;;;12830757;23;20219;-77
2022/01/06 23:22:04;;;;;;;16.50;8.40;;;2.20;99.90;;;;;;12826044;23;20204;-78
2022/01/06 23:27:11;;;;;;;17.67;8.23;;;2.10;99.90;;;;;;12840781;23;20200;-78
2022/01/06 23:32:41;;;;;;;18.70;8.10;;;2.00;99.90;;;;;;12842831;23;20200;-78
2022/01/06 23:38:03;;;;;;;16.40;7.80;;;2.00;99.90;;;;;;12806157;23;20203;-79
2022/01/06 23:43:08;;;;;;;17.30;6.80;;;2.10;99.90;;;;;;12827960;23;20821;-78
2022/01/06 23:48:17;;;;;;;14.67;7.90;;;2.10;99.90;;;;;;12841037;23;20663;-77
2022/01/06 23:53:29;;;;;;;17.50;8.00;;;2.10;99.90;;;;;;12841404;23;20200;-78
2022/01/06 23:58:47;;;;;;;17.97;8.10;;;2.10;99.90;;;;;;12823952;23;20279;-77
